< < Back
Terminal Aerodrome Forecast


Current Version              Previous Versions:   1  2  3  4  5  6  7  8  9  

Terminal Aerodrome Forecast

285
FTUS44 KMRX 271710 AAB
TAFCHA
TAF AMD
KCHA 271710Z 2717/2812 17005KT P6SM BKN025 BKN040
     FM272100 20006KT P6SM VCTS BKN035CB BKN200
     FM280300 VRB03KT P6SM SCT050 BKN100
     FM280800 00000KT 5SM BR SCT015 SCT100=

Latest METAR

604
SAUS80 KWBC 280600 RRA
MTRCHA
METAR KCHA 280553Z AUTO 00000KT 10SM CLR 21/18 A3019 RMK AO2 SLP215
T02110178 10261 20211 58009


USA.gov is the U.S. government's official web portal to all federal, state and local government web resources and services.